עמוד ראשי
METAR-TAF:

METAR-TAF

שדות תעופה :

Dease Lake, קולומביה הבריטית, קנדה

קו רוחב: 58-25-20N, קו אורך: 130-01-53W, גובה: 803מטר

תצפית מזג אוויר נוכחית

הדו"ח נערך לפני 40דקות, בשעה 10:00 UTC
רוח 7קשר מכיוון דרום
טמפרטורת 8 צלסיוס
לחות 100%
לחץ 1011 hPa
ראות: 12.9קילומטר
עננים בינוניים בגובה 1900רגל
מעונן בגובה 2400רגל
גשם קל

METAR: CYDL 241000Z AUTO 18007KT 8SM -RA BKN019 OVC024 08/08 A2986 RMK SLP119

זמן: 03:40 (10:40 UTC)

תחזית

הדו"ח נערך לפני 13 שעות ו 11דקות, בשעה 21:29 UTC
תחזית בתוקף מ 23 ב 21 UTC עד 23 ב 23 UTC
רוח 8קשר מכיוון דרום-מערב
ראות: 10קילומטר
מעט עננים בגובה 2000רגל
עננים בינוניים בגובה 6000רגל
זמנית מ -
23 ב 21 UTC עד 23 ב 23 UTC
רוח 15קשר עם כיוונים משתנים עם משבים עד 25קשר
ראות: 6.4קילומטר
עננים בינוניים בגובה 2000רגל , קומולונימבוס.
ממטרי גשם קלים, סופת רעמים במרחב, אד

TAF: CYDL 232129Z 2321/2323 23008KT P6SM FEW020 BKN060 TEMPO 2321/2323 VRB15G25KT 4SM -SHRA VCTS BR BKN020CB RMK FCST BASED ON AUTO OBS. NXT FCST BY 241200Z

תצפיות ותחזיות מזג אוויר לגבי יותר מ- 4,000 שדות תעופה ברחבי העולם. דוחות METAR ו- TAF.

התחנות הזמינות מסומנות בנקודות צהובות ואדומות על גבי המפה.

העבר את העכבר לנקודה הצבעונית על מנת לראות את שם התחנה.

לאחר מכן, לחץ כדי לראות את תוכן ואת תחזיות מזג האוויר.

כדי לשנות את המפה: לחץ על הכפתורים הירוקים עם הפלוס השחור כדי להתקרב; על הכפתור הירוק עם המקף כדי להתרחק; או בחיצים הירוקים למפות סמוכות.


METAR-TAF: